Time;durP1;ratioP1;P1;durP2;ratioP2;P2;SDS_P1;SDS_P2;PMS_P1;PMS_P2;Temp;Humidity;BMP_temperature;BMP_pressure;BME280_temperature;BME280_humidity;BME280_pressure;Samples;Min_cycle;Max_cycle;Signal;HPM_P1;HPM_P2
2021/03/15 00:00:09;;;;;;;8.20;4.05;;;;;;;9.04;57.72;100412.09;5071455;27;101494;-81
2021/03/15 00:02:36;;;;;;;7.60;3.80;;;;;;;8.95;57.85;100407.13;5084024;27;101117;-82
2021/03/15 00:05:02;;;;;;;6.50;4.20;;;;;;;8.84;58.11;100405.78;5078192;27;96327;-82
2021/03/15 00:07:28;;;;;;;10.80;4.10;;;;;;;9.24;57.22;100410.53;5069974;27;97016;-81
2021/03/15 00:09:54;;;;;;;6.95;3.90;;;;;;;9.16;57.22;100413.44;5072492;27;96967;-82
2021/03/15 00:12:21;;;;;;;;;;;;;;;9.09;57.70;100404.03;5073440;27;97743;-82
2021/03/15 00:14:47;;;;;;;6.50;3.47;;;;;;;9.14;57.43;100395.03;5072961;27;96565;-81
2021/03/15 00:17:13;;;;;;;8.57;3.53;;;;;;;9.34;56.97;100401.38;5075846;27;96617;-80
2021/03/15 00:19:39;;;;;;;6.03;3.42;;;;;;;9.33;56.53;100400.50;5077945;27;98000;-81
2021/03/15 00:22:05;;;;;;;;;;;;;;;9.24;57.20;100400.88;5072188;27;98067;-81
2021/03/15 00:24:31;;;;;;;8.80;2.92;;;;;;;9.31;56.83;100404.13;5073065;27;96721;-81
2021/03/15 00:26:57;;;;;;;9.18;3.20;;;;;;;9.25;57.02;100394.69;5073368;27;96719;-81
2021/03/15 00:29:24;;;;;;;;;;;;;;;9.25;56.67;100399.09;5086235;27;98971;-82
2021/03/15 00:31:52;;;;;;;7.05;3.17;;;;;;;8.90;57.81;100403.81;5076499;27;96600;-83
2021/03/15 00:34:18;;;;;;;6.63;2.78;;;;;;;8.79;58.42;100396.25;5076855;27;96997;-83
2021/03/15 00:36:46;;;;;;;5.45;2.30;;;;;;;8.60;59.26;100403.03;5064128;27;97573;-82
2021/03/15 00:39:12;;;;;;;10.77;2.80;;;;;;;8.89;57.99;100399.44;5067902;27;97826;-84
2021/03/15 00:41:39;;;;;;;5.45;2.83;;;;;;;8.83;58.15;100396.16;5074964;27;99056;-83
2021/03/15 00:44:06;;;;;;;9.50;3.50;;;;;;;8.78;57.87;100391.03;5083785;27;97280;-82
2021/03/15 00:46:33;;;;;;;5.47;2.70;;;;;;;9.07;57.35;100403.22;5066673;27;96534;-81
2021/03/15 00:48:59;;;;;;;5.60;3.08;;;;;;;8.71;57.94;100389.53;5074572;27;96921;-82
2021/03/15 00:51:25;;;;;;;;;;;;;;;8.92;57.79;100399.34;5072857;27;98104;-82
2021/03/15 00:53:51;;;;;;;7.35;3.13;;;;;;;8.88;57.96;100397.72;5070332;27;96856;-82
2021/03/15 00:56:17;;;;;;;;;;;;;;;9.08;57.09;100400.53;5078702;27;96917;-81
2021/03/15 00:58:43;;;;;;;6.73;2.63;;;;;;;8.85;57.89;100397.84;5056993;27;98944;-83
2021/03/15 01:01:09;;;;;;;;;;;;;;;8.87;57.79;100393.34;5073131;27;96830;-82
2021/03/15 01:03:36;;;;;;;5.13;2.63;;;;;;;8.64;58.39;100395.91;5066668;27;96788;-82
2021/03/15 01:06:02;;;;;;;8.05;3.13;;;;;;;8.89;57.69;100394.16;5071433;27;96735;-82
2021/03/15 01:08:28;;;;;;;9.40;2.95;;;;;;;9.02;57.23;100402.50;5061726;27;100717;-83
2021/03/15 01:10:54;;;;;;;9.23;3.35;;;;;;;8.96;57.34;100400.97;5075151;27;98926;-83
2021/03/15 01:13:20;;;;;;;;;;;;;;;8.91;57.47;100396.75;5060670;27;96906;-83
2021/03/15 01:15:46;;;;;;;9.52;3.13;;;;;;;8.77;57.98;100402.50;5065156;27;97386;-83
2021/03/15 01:18:13;;;;;;;7.90;2.97;;;;;;;8.97;57.42;100400.03;5070598;27;98955;-83
2021/03/15 01:20:41;;;;;;;6.13;2.88;;;;;;;8.73;58.38;100401.72;5070682;27;97586;-83
2021/03/15 01:23:07;;;;;;;9.95;3.25;;;;;;;8.57;58.72;100397.03;5083948;27;96638;-83
2021/03/15 01:25:33;;;;;;;;;;;;;;;9.01;57.71;100400.78;5065569;27;96809;-83
2021/03/15 01:28:01;;;;;;;9.32;2.83;;;;;;;8.48;59.16;100402.56;5073943;27;98924;-83
2021/03/15 01:30:29;;;;;;;6.97;3.10;;;;;;;9.04;57.69;100404.19;5088485;27;96754;-81
2021/03/15 01:32:56;;;;;;;6.15;2.90;;;;;;;9.05;57.17;100389.25;5093974;27;96789;-81
2021/03/15 01:35:24;;;;;;;5.60;2.83;;;;;;;8.98;57.54;100398.28;5082492;27;96978;-82
2021/03/15 01:37:51;;;;;;;7.85;3.05;;;;;;;8.97;57.62;100389.50;5077918;27;99192;-82
2021/03/15 01:40:18;;;;;;;5.28;2.55;;;;;;;9.22;57.11;100380.72;5088998;27;99219;-82
2021/03/15 01:42:44;;;;;;;6.82;2.72;;;;;;;8.90;57.86;100382.72;5084094;27;97190;-80
2021/03/15 01:45:11;;;;;;;3.45;2.75;;;;;;;8.96;57.42;100390.41;5080213;27;96857;-81
2021/03/15 01:47:39;;;;;;;6.05;3.38;;;;;;;8.97;57.40;100386.88;5081063;27;99024;-81
2021/03/15 01:50:06;;;;;;;5.95;3.10;;;;;;;8.80;58.11;100376.03;5081614;27;99044;-81
2021/03/15 01:52:32;;;;;;;11.02;3.50;;;;;;;8.82;57.83;100374.22;5082447;27;96754;-81
2021/03/15 01:54:59;;;;;;;;;;;;;;;8.78;58.07;100380.50;5082922;27;96715;-82
2021/03/15 01:57:25;;;;;;;7.80;3.40;;;;;;;8.68;58.30;100373.81;5095783;27;98988;-83
2021/03/15 01:59:51;;;;;;;6.68;3.20;;;;;;;8.75;58.00;100364.78;5113520;27;97703;-82
2021/03/15 02:02:18;;;;;;;5.80;3.70;;;;;;;8.44;59.54;100361.47;5101079;27;96540;-82
2021/03/15 02:04:44;;;;;;;10.00;3.42;;;;;;;8.62;58.57;100350.31;5101837;27;96452;-82
2021/03/15 02:07:10;;;;;;;;;;;;;;;8.66;58.43;100349.31;5097603;27;97858;-82
2021/03/15 02:09:36;;;;;;;10.30;3.65;;;;;;;8.96;57.88;100350.03;5101177;27;97743;-82
2021/03/15 02:12:10;;;;;;;;;;;;;;;8.90;57.62;100348.47;5096189;27;96317;-82
2021/03/15 02:14:48;;;;;;;8.93;3.05;;;;;;;8.92;57.69;100351.91;5085271;27;96721;-81
2021/03/15 02:17:22;;;;;;;10.52;3.75;;;;;;;8.90;57.62;100342.34;5083479;27;98099;-82
2021/03/15 02:20:16;;;;;;;5.85;3.28;;;;;;;9.24;56.57;100348.13;5088154;27;97697;-82
2021/03/15 02:22:54;;;;;;;5.28;3.28;;;;;;;8.90;57.22;100337.94;5075904;27;96803;-84
2021/03/15 02:25:46;;;;;;;7.30;3.33;;;;;;;8.55;58.13;100339.13;5081710;27;96822;-83
2021/03/15 02:28:37;;;;;;;6.82;3.25;;;;;;;8.73;57.88;100340.25;5074663;27;101356;-83
2021/03/15 02:31:30;;;;;;;6.28;3.28;;;;;;;8.89;57.43;100336.19;5066665;27;99364;-83
2021/03/15 02:34:20;;;;;;;4.45;3.28;;;;;;;8.73;58.00;100329.72;5062140;27;96927;-82
2021/03/15 02:36:50;;;;;;;9.95;3.05;;;;;;;8.64;57.80;100330.06;5064669;27;96857;-83
2021/03/15 02:39:19;;;;;;;10.90;3.10;;;;;;;8.74;57.77;100323.56;5058148;27;99859;-83
2021/03/15 02:41:47;;;;;;;10.85;3.67;;;;;;;8.69;57.90;100330.75;5066155;27;99115;-83
2021/03/15 02:44:16;;;;;;;8.70;3.80;;;;;;;8.50;58.71;100332.31;5057890;27;96768;-83
2021/03/15 02:46:45;;;;;;;7.68;3.28;;;;;;;9.04;57.43;100332.19;5068666;27;96782;-83
2021/03/15 02:49:14;;;;;;;8.07;3.20;;;;;;;9.13;56.82;100322.13;5053365;27;99352;-83
2021/03/15 02:51:43;;;;;;;9.35;3.17;;;;;;;9.15;56.78;100330.00;5065540;27;99720;-82
2021/03/15 02:54:12;;;;;;;6.13;3.03;;;;;;;9.08;56.55;100326.72;5067198;27;97171;-81
2021/03/15 02:56:42;;;;;;;5.75;3.47;;;;;;;8.68;57.98;100331.66;5076530;27;98731;-80
2021/03/15 02:59:10;;;;;;;9.75;3.47;;;;;;;9.12;56.74;100324.84;5073377;27;98914;-79
2021/03/15 03:01:38;;;;;;;11.88;3.42;;;;;;;9.08;56.70;100336.41;5067937;27;97788;-81
2021/03/15 03:04:05;;;;;;;8.52;3.53;;;;;;;9.28;56.00;100327.78;5070285;27;96771;-83
2021/03/15 03:06:34;;;;;;;8.63;3.88;;;;;;;9.35;56.30;100334.56;5061389;27;97142;-82
2021/03/15 03:09:01;;;;;;;11.10;3.45;;;;;;;8.23;59.95;100328.75;5058989;27;99841;-83
2021/03/15 03:11:29;;;;;;;8.90;4.15;;;;;;;8.80;58.09;100328.59;5063450;27;98864;-83
2021/03/15 03:13:57;;;;;;;6.93;4.10;;;;;;;8.79;58.47;100326.91;5057329;27;96938;-83
2021/03/15 03:16:26;;;;;;;9.68;4.25;;;;;;;9.21;57.14;100327.13;5056791;27;96915;-82
2021/03/15 03:18:54;;;;;;;8.18;4.43;;;;;;;9.22;57.05;100331.50;5057161;27;97562;-83
2021/03/15 03:21:22;;;;;;;10.20;4.53;;;;;;;8.99;57.57;100327.03;5057573;27;99358;-83
2021/03/15 03:23:50;;;;;;;15.02;4.80;;;;;;;9.24;57.03;100331.44;5068819;27;96842;-83
2021/03/15 03:26:21;;;;;;;8.95;5.03;;;;;;;9.31;56.73;100325.03;5059147;27;97526;-83
2021/03/15 03:28:51;;;;;;;10.68;5.10;;;;;;;8.98;57.65;100329.75;5058868;27;99349;-82
2021/03/15 03:31:19;;;;;;;15.00;5.80;;;;;;;8.89;57.95;100325.66;5063482;27;97728;-83
2021/03/15 03:33:46;;;;;;;9.85;5.78;;;;;;;8.59;59.17;100334.63;5056670;27;96673;-82
2021/03/15 03:36:12;;;;;;;14.43;5.68;;;;;;;8.72;58.65;100322.78;5059798;27;97090;-82
2021/03/15 03:38:37;;;;;;;;;;;;;;;9.03;57.88;100322.53;5055497;27;99091;-82
2021/03/15 03:41:03;;;;;;;11.57;5.00;;;;;;;8.86;58.01;100317.84;5056499;27;97952;-82
2021/03/15 03:43:30;;;;;;;18.65;5.97;;;;;;;9.02;57.79;100321.69;5056801;27;96784;-82
2021/03/15 03:45:56;;;;;;;;;;;;;;;8.80;58.28;100311.03;5049713;27;96789;-82
2021/03/15 03:48:22;;;;;;;13.88;5.63;;;;;;;8.89;57.96;100315.13;5060499;27;99005;-83
2021/03/15 03:50:48;;;;;;;12.35;5.88;;;;;;;8.89;57.94;100320.41;5063299;27;98860;-82
2021/03/15 03:53:19;;;;;;;14.70;5.80;;;;;;;8.33;59.54;100320.56;5056424;27;96916;-82
2021/03/15 03:55:51;;;;;;;9.32;5.20;;;;;;;8.35;60.09;100318.72;5058531;27;96825;-83
2021/03/15 03:58:20;;;;;;;17.52;6.43;;;;;;;8.74;58.33;100319.16;5053190;27;99092;-82
2021/03/15 04:00:47;;;;;;;12.60;5.47;;;;;;;8.82;58.21;100318.03;5055797;27;97354;-83
2021/03/15 04:03:17;;;;;;;10.95;6.00;;;;;;;8.67;57.99;100325.53;5053235;27;96765;-82
2021/03/15 04:05:49;;;;;;;11.48;5.30;;;;;;;8.81;57.89;100325.06;5047627;27;96872;-82
2021/03/15 04:08:21;;;;;;;13.98;6.07;;;;;;;8.82;57.56;100321.53;5071058;27;99307;-82
2021/03/15 04:10:49;;;;;;;18.02;6.30;;;;;;;8.84;57.80;100316.22;5055535;27;99069;-84
2021/03/15 04:13:19;;;;;;;11.65;5.63;;;;;;;8.68;57.54;100314.09;5070954;27;96834;-82
2021/03/15 04:15:47;;;;;;;15.20;6.10;;;;;;;8.68;57.92;100318.50;5057504;27;96910;-82
2021/03/15 04:18:17;;;;;;;11.13;5.78;;;;;;;8.67;57.67;100315.00;5067983;27;98876;-83
2021/03/15 04:20:45;;;;;;;14.35;5.72;;;;;;;8.34;58.68;100324.91;5061617;27;98247;-83
2021/03/15 04:23:16;;;;;;;11.35;5.35;;;;;;;8.39;58.67;100320.38;5056615;27;97269;-83
2021/03/15 04:25:44;;;;;;;18.17;6.50;;;;;;;8.57;58.13;100308.34;5061067;27;96823;-82
2021/03/15 04:28:11;;;;;;;12.02;5.63;;;;;;;8.22;59.09;100316.50;5057924;27;101391;-82
2021/03/15 04:30:39;;;;;;;15.70;6.10;;;;;;;8.52;58.39;100314.69;5064871;27;98808;-83
2021/03/15 04:33:06;;;;;;;12.35;5.53;;;;;;;8.45;58.44;100314.03;5077316;27;97203;-83
2021/03/15 04:35:35;;;;;;;14.90;5.93;;;;;;;8.56;58.03;100317.16;5072939;27;96877;-84
2021/03/15 04:38:04;;;;;;;10.88;4.85;;;;;;;8.61;57.73;100319.63;5079082;27;99069;-84
2021/03/15 04:40:32;;;;;;;10.95;5.07;;;;;;;8.92;57.06;100311.53;5086528;27;97920;-84
2021/03/15 04:43:00;;;;;;;17.92;5.15;;;;;;;8.51;58.17;100312.97;5089085;27;96848;-85
2021/03/15 04:45:27;;;;;;;16.60;6.10;;;;;;;8.67;57.57;100314.13;5097427;27;96685;-83
2021/03/15 04:47:55;;;;;;;19.92;5.80;;;;;;;8.86;57.09;100312.59;5096914;27;97751;-82
2021/03/15 04:50:21;;;;;;;13.40;5.47;;;;;;;8.92;56.94;100311.53;5086534;27;98523;-83
2021/03/15 04:52:49;;;;;;;14.55;5.15;;;;;;;8.72;57.22;100307.81;5079862;27;96746;-84
2021/03/15 04:55:15;;;;;;;11.05;5.57;;;;;;;8.89;57.00;100314.25;5055956;27;96812;-82
2021/03/15 04:57:42;;;;;;;15.90;5.53;;;;;;;8.74;57.29;100321.78;5074575;27;99115;-82
2021/03/15 05:00:12;;;;;;;14.88;5.75;;;;;;;8.68;56.98;100322.00;5066564;27;98853;-83
2021/03/15 05:02:39;;;;;;;15.52;4.90;;;;;;;8.56;57.57;100318.91;5076889;27;97124;-83
2021/03/15 05:05:08;;;;;;;16.05;5.18;;;;;;;8.67;57.19;100312.38;5084171;27;96569;-83
2021/03/15 05:07:35;;;;;;;13.32;5.50;;;;;;;8.79;56.85;100304.03;5079779;27;98892;-83
2021/03/15 05:10:04;;;;;;;15.60;5.85;;;;;;;8.61;57.12;100304.69;5075086;27;97746;-83
2021/03/15 05:12:32;;;;;;;15.85;5.10;;;;;;;8.70;56.88;100298.25;5078151;27;97078;-82
2021/03/15 05:14:59;;;;;;;19.58;5.80;;;;;;;8.21;58.97;100306.88;5081738;27;97095;-83
2021/03/15 05:17:25;;;;;;;15.27;5.85;;;;;;;8.67;57.45;100304.47;5081988;27;98954;-83
2021/03/15 05:19:52;;;;;;;9.60;5.40;;;;;;;8.56;57.48;100297.84;5084545;27;99883;-83
2021/03/15 05:22:18;;;;;;;18.02;5.18;;;;;;;8.57;57.16;100307.47;5082370;27;96770;-83
2021/03/15 05:24:45;;;;;;;10.93;5.03;;;;;;;8.80;56.51;100304.91;5081176;27;96797;-83
2021/03/15 05:27:12;;;;;;;14.13;5.50;;;;;;;8.77;56.74;100302.38;5083754;27;99222;-82
2021/03/15 05:29:40;;;;;;;19.63;5.22;;;;;;;8.79;56.26;100306.66;5090888;27;98958;-83
2021/03/15 05:32:07;;;;;;;13.27;5.43;;;;;;;8.92;55.66;100301.84;5077931;27;96940;-83
2021/03/15 05:34:35;;;;;;;15.35;5.35;;;;;;;8.78;56.01;100298.84;5079928;27;96795;-83
2021/03/15 05:37:03;;;;;;;13.68;4.97;;;;;;;8.67;56.36;100303.59;5077868;27;97826;-83
2021/03/15 05:39:30;;;;;;;17.00;5.88;;;;;;;8.40;57.43;100302.81;5078217;27;97930;-82
2021/03/15 05:42:25;;;;;;;17.15;6.00;;;;;;;8.84;56.23;100303.03;5079369;27;98635;-82
2021/03/15 05:45:06;;;;;;;11.18;5.35;;;;;;;8.71;56.00;100311.38;5065032;27;96880;-82
2021/03/15 05:48:24;;;;;;;12.88;5.75;;;;;;;8.71;56.11;100297.34;5078126;27;99883;-84
2021/03/15 05:51:16;;;;;;;13.80;5.75;;;;;;;8.91;55.92;100305.41;5071784;27;96948;-81
2021/03/15 05:54:01;;;;;;;14.40;5.82;;;;;;;8.82;55.69;100300.44;5072127;27;97055;-83
2021/03/15 05:56:41;;;;;;;13.50;5.20;;;;;;;8.91;55.48;100307.16;5071326;27;98817;-83
2021/03/15 05:59:35;;;;;;;14.30;6.05;;;;;;;8.84;55.47;100295.13;5072860;27;98940;-82
2021/03/15 06:02:46;;;;;;;11.40;5.03;;;;;;;8.68;56.10;100300.06;5074544;27;99359;-82
2021/03/15 06:05:20;;;;;;;10.35;5.32;;;;;;;8.74;55.89;100298.06;5079985;27;97705;-81
2021/03/15 06:07:48;;;;;;;11.80;5.35;;;;;;;9.02;54.92;100300.59;5094541;27;97579;-82
2021/03/15 06:10:23;;;;;;;14.55;5.65;;;;;;;9.00;54.76;100305.06;5077030;27;102425;-82
2021/03/15 06:12:53;;;;;;;18.57;5.63;;;;;;;9.21;54.27;100303.41;5074493;27;97762;-81
2021/03/15 06:15:33;;;;;;;15.80;5.85;;;;;;;8.88;54.90;100302.84;5077262;27;96735;-83
2021/03/15 06:18:03;;;;;;;12.27;5.15;;;;;;;8.74;55.49;100295.44;5090476;27;96800;-84
2021/03/15 06:20:29;;;;;;;13.80;5.38;;;;;;;8.90;54.75;100298.41;5076627;27;98408;-84
2021/03/15 06:22:56;;;;;;;13.30;5.85;;;;;;;8.72;54.72;100296.44;5077673;27;100051;-85
2021/03/15 06:25:22;;;;;;;12.73;5.10;;;;;;;8.85;55.19;100302.97;5077439;27;96604;-83
2021/03/15 06:27:49;;;;;;;19.23;5.35;;;;;;;9.01;54.17;100293.59;5072193;27;97643;-84
2021/03/15 06:30:16;;;;;;;20.15;6.22;;;;;;;8.80;54.87;100294.34;5093110;27;98965;-84
2021/03/15 06:32:46;;;;;;;13.07;5.22;;;;;;;9.25;53.90;100298.91;5078804;27;98860;-83
2021/03/15 06:35:13;;;;;;;10.07;4.90;;;;;;;9.06;54.06;100306.59;5073438;27;97562;-84
2021/03/15 06:37:39;;;;;;;14.07;5.07;;;;;;;8.84;53.95;100303.03;5078953;27;97139;-83
2021/03/15 06:40:07;;;;;;;11.95;4.88;;;;;;;8.64;54.75;100298.47;5076515;27;100654;-84
2021/03/15 06:42:34;;;;;;;11.15;4.65;;;;;;;8.94;54.05;100297.38;5077155;27;99092;-83
2021/03/15 06:45:00;;;;;;;13.45;5.20;;;;;;;9.10;53.67;100301.19;5075485;27;96793;-82
2021/03/15 06:47:27;;;;;;;10.57;4.82;;;;;;;8.98;53.43;100309.53;5078146;27;97253;-82
2021/03/15 06:49:54;;;;;;;15.10;4.55;;;;;;;9.19;52.94;100299.97;5077157;27;99132;-81
2021/03/15 06:52:20;;;;;;;9.77;3.95;;;;;;;8.91;53.90;100300.13;5082084;27;98987;-82
2021/03/15 06:54:46;;;;;;;;;;;;;;;8.55;54.27;100311.94;5088729;27;97340;-83
2021/03/15 06:57:17;;;;;;;16.00;4.68;;;;;;;8.96;53.65;100315.75;5089703;27;98729;-81
2021/03/15 06:59:51;;;;;;;16.45;5.20;;;;;;;8.70;54.48;100320.19;5094145;27;97817;-82
2021/03/15 07:02:25;;;;;;;10.40;4.30;;;;;;;9.14;53.51;100310.69;5093808;27;98093;-82
2021/03/15 07:05:06;;;;;;;8.00;3.70;;;;;;;9.02;53.35;100310.28;5083566;27;96715;-82
2021/03/15 07:07:32;;;;;;;17.27;5.32;;;;;;;8.78;53.96;100306.75;5094876;27;96979;-82
2021/03/15 07:09:58;;;;;;;11.85;5.00;;;;;;;8.93;53.27;100313.22;5094356;27;96907;-83
2021/03/15 07:12:24;;;;;;;;;;;;;;;9.11;52.83;100310.81;5090510;27;97612;-82
2021/03/15 07:14:52;;;;;;;12.18;4.65;;;;;;;9.44;51.89;100302.56;5099448;27;96640;-82
2021/03/15 07:17:26;;;;;;;13.23;4.45;;;;;;;9.64;51.42;100309.72;5096551;27;96657;-83
2021/03/15 07:19:53;;;;;;;6.38;3.60;;;;;;;9.70;51.62;100310.34;5078079;27;99048;-81
2021/03/15 07:22:22;;;;;;;11.32;4.00;;;;;;;9.41;52.19;100318.50;5059046;27;101761;-83
2021/03/15 07:25:12;;;;;;;11.70;4.57;;;;;;;9.39;52.00;100307.13;5082282;27;97038;-82
2021/03/15 07:27:41;;;;;;;9.75;4.55;;;;;;;9.33;51.97;100316.13;5095832;27;96558;-83
2021/03/15 07:30:37;;;;;;;7.90;4.10;;;;;;;9.70;51.16;100310.34;5067862;27;98360;-82
2021/03/15 07:33:05;;;;;;;9.88;4.70;;;;;;;9.77;51.09;100310.97;5073993;27;99906;-82
2021/03/15 07:35:34;;;;;;;11.30;4.25;;;;;;;9.31;51.74;100310.09;5064558;27;96871;-82
2021/03/15 07:38:01;;;;;;;11.55;4.97;;;;;;;9.61;51.46;100310.69;5083549;27;97138;-81
2021/03/15 07:40:37;;;;;;;12.02;4.55;;;;;;;9.62;51.14;100307.13;5081584;27;97969;-83
2021/03/15 07:43:05;;;;;;;8.95;3.90;;;;;;;9.84;50.73;100312.44;5081083;27;98775;-82
2021/03/15 07:45:43;;;;;;;12.55;4.05;;;;;;;9.85;50.91;100319.41;5089610;27;96816;-83
2021/03/15 07:48:18;;;;;;;8.82;4.45;;;;;;;10.11;50.28;100321.06;5070287;27;98533;-82
2021/03/15 07:50:56;;;;;;;12.55;4.53;;;;;;;9.97;50.50;100317.19;5077027;27;97798;-81
2021/03/15 07:53:43;;;;;;;9.77;4.15;;;;;;;10.28;50.01;100326.53;5071184;27;98359;-82
2021/03/15 07:56:25;;;;;;;10.87;4.90;;;;;;;10.20;50.19;100323.34;5074875;27;96875;-82
2021/03/15 07:58:51;;;;;;;8.43;4.70;;;;;;;10.55;49.33;100332.47;5075696;27;97118;-81
2021/03/15 08:01:17;;;;;;;9.23;3.78;;;;;;;10.17;49.58;100324.34;5081971;27;98944;-82
2021/03/15 08:03:44;;;;;;;9.80;4.18;;;;;;;10.72;48.53;100333.47;5073578;27;98954;-81
2021/03/15 08:06:11;;;;;;;10.63;4.38;;;;;;;9.98;50.50;100332.06;5073032;27;97104;-82
2021/03/15 08:08:38;;;;;;;9.55;4.85;;;;;;;10.51;49.47;100331.72;5074099;27;97993;-82
2021/03/15 08:11:07;;;;;;;10.95;5.07;;;;;;;10.07;50.24;100337.91;5071329;27;99164;-81
2021/03/15 08:13:36;;;;;;;9.13;4.10;;;;;;;10.58;49.61;100335.81;5074947;27;98878;-82
2021/03/15 08:16:04;;;;;;;10.32;4.95;;;;;;;10.39;49.64;100337.50;5075875;27;96917;-81
2021/03/15 08:18:31;;;;;;;10.32;4.45;;;;;;;10.75;48.54;100330.69;5073236;27;97573;-81
2021/03/15 08:21:03;;;;;;;9.77;4.38;;;;;;;11.11;48.13;100330.00;5074608;27;97647;-82
2021/03/15 08:23:30;;;;;;;7.65;4.47;;;;;;;11.34;47.17;100332.50;5076970;27;99255;-80
2021/03/15 08:26:03;;;;;;;12.05;4.78;;;;;;;11.10;47.49;100325.66;5075795;27;97016;-83
2021/03/15 08:28:31;;;;;;;10.40;4.03;;;;;;;11.20;47.28;100329.63;5073977;27;96843;-81
2021/03/15 08:31:01;;;;;;;7.38;4.18;;;;;;;11.17;47.23;100324.44;5055969;27;100931;-81
2021/03/15 08:33:28;;;;;;;9.70;4.35;;;;;;;11.36;46.54;100322.69;5059159;27;98078;-82
2021/03/15 08:35:56;;;;;;;9.55;4.22;;;;;;;11.60;46.46;100326.03;5066011;27;97108;-82
2021/03/15 08:38:30;;;;;;;9.52;4.05;;;;;;;11.95;45.53;100325.25;5063088;27;96798;-82
2021/03/15 08:40:58;;;;;;;10.00;3.83;;;;;;;11.67;45.59;100326.59;5071473;27;97813;-83
2021/03/15 08:43:31;;;;;;;8.60;4.25;;;;;;;11.36;46.36;100320.03;5060083;27;96834;-84
2021/03/15 08:45:59;;;;;;;12.85;4.18;;;;;;;11.25;46.78;100314.41;5066891;27;97319;-83
2021/03/15 08:48:54;;;;;;;14.05;4.85;;;;;;;11.75;46.38;100311.25;5056787;27;96904;-82
2021/03/15 08:51:53;;;;;;;9.32;4.30;;;;;;;11.55;46.71;100315.63;5058491;27;99810;-82
2021/03/15 08:54:39;;;;;;;9.85;4.50;;;;;;;11.10;48.00;100310.63;5048633;27;96902;-82
2021/03/15 08:57:07;;;;;;;7.70;4.13;;;;;;;11.16;47.90;100309.50;5055476;27;96793;-81
2021/03/15 08:59:34;;;;;;;11.38;4.97;;;;;;;11.06;47.51;100303.78;5063969;27;96911;-85
2021/03/15 09:02:05;;;;;;;9.18;4.53;;;;;;;10.98;47.52;100315.63;5051255;27;99078;-83
2021/03/15 09:04:34;;;;;;;13.45;5.22;;;;;;;11.14;47.30;100306.94;5054590;27;99339;-83
2021/03/15 09:07:03;;;;;;;10.60;5.28;;;;;;;11.29;47.02;100308.03;5060984;27;96898;-82
2021/03/15 09:09:30;;;;;;;6.55;5.22;;;;;;;11.63;46.45;100304.69;5067552;27;97717;-83
2021/03/15 09:11:57;;;;;;;10.00;5.25;;;;;;;11.85;46.20;100309.88;5068544;27;98005;-83
2021/03/15 09:14:53;;;;;;;12.35;5.70;;;;;;;11.51;46.47;100299.97;5071389;27;98005;-81
2021/03/15 09:17:33;;;;;;;7.70;5.22;;;;;;;11.32;46.58;100299.97;5073575;27;96352;-83
2021/03/15 09:20:15;;;;;;;5.50;4.78;;;;;;;10.98;47.17;100292.69;5079343;27;97021;-82
2021/03/15 09:22:42;;;;;;;10.93;5.50;;;;;;;11.12;47.40;100290.28;5064452;27;97760;-81
2021/03/15 09:25:17;;;;;;;;;;;;;;;11.29;46.88;100299.25;5059523;27;98527;-82
2021/03/15 09:27:44;;;;;;;8.70;4.28;;;;;;;11.80;45.83;100293.38;5060614;27;97555;-83
2021/03/15 09:30:15;;;;;;;9.90;5.15;;;;;;;11.90;45.67;100297.28;5080801;27;97022;-83
2021/03/15 09:32:42;;;;;;;12.57;4.60;;;;;;;11.62;46.23;100296.84;5080259;27;97890;-83
2021/03/15 09:35:21;;;;;;;7.75;4.47;;;;;;;11.82;45.73;100300.28;5071962;27;96750;-81
2021/03/15 09:37:49;;;;;;;8.88;4.55;;;;;;;11.47;46.14;100293.97;5075561;27;96610;-85
2021/03/15 09:40:17;;;;;;;7.57;4.43;;;;;;;12.16;44.75;100299.50;5086460;27;96278;-83
2021/03/15 09:42:43;;;;;;;11.20;4.80;;;;;;;12.77;44.24;100294.66;5083973;27;96766;-82
2021/03/15 09:45:12;;;;;;;8.02;4.22;;;;;;;13.15;43.00;100297.97;5080155;27;97742;-83
2021/03/15 09:47:39;;;;;;;7.30;4.90;;;;;;;13.55;42.18;100290.53;5084245;27;96545;-85
2021/03/15 09:50:16;;;;;;;21.30;11.02;;;;;;;13.45;42.58;100290.19;5087241;27;96000;-85
2021/03/15 09:52:42;;;;;;;14.48;5.63;;;;;;;12.75;43.37;100287.69;5072966;27;98399;-81
2021/03/15 09:55:09;;;;;;;;;;;;;;;12.98;43.44;100289.19;5067890;27;98100;-81
2021/03/15 09:57:35;;;;;;;3.90;2.95;;;;;;;12.52;43.19;100290.69;5067022;27;97171;-80
2021/03/15 10:00:05;;;;;;;;;;;;;;;12.46;43.74;100293.66;5048879;27;96896;-82
2021/03/15 10:02:31;;;;;;;8.57;3.17;;;;;;;12.65;43.71;100281.19;5057359;27;98878;-82
2021/03/15 10:04:58;;;;;;;5.63;3.13;;;;;;;12.98;43.01;100295.34;5057666;27;97790;-84
2021/03/15 10:07:25;;;;;;;7.40;3.10;;;;;;;12.50;43.53;100288.09;5068081;27;97850;-81
2021/03/15 10:09:51;;;;;;;5.45;3.30;;;;;;;12.48;43.72;100297.06;5060560;27;98890;-81
2021/03/15 10:12:19;;;;;;;;;;;;;;;12.41;44.50;100295.66;5057939;27;97807;-82
2021/03/15 10:14:45;;;;;;;4.47;2.85;;;;;;;12.80;42.79;100285.66;5063148;27;98854;-82
2021/03/15 10:17:20;;;;;;;4.05;2.92;;;;;;;12.95;42.77;100290.19;5058115;27;98624;-81
2021/03/15 10:19:46;;;;;;;8.00;2.90;;;;;;;12.87;42.48;100281.75;5052132;27;96903;-82
2021/03/15 10:22:16;;;;;;;8.93;2.70;;;;;;;12.91;42.45;100274.53;5059158;27;99315;-84
2021/03/15 10:24:43;;;;;;;6.15;2.80;;;;;;;12.98;42.47;100275.91;5060670;27;100363;-83
2021/03/15 10:27:16;;;;;;;4.47;2.10;;;;;;;13.07;42.39;100268.31;5064011;27;96956;-83
2021/03/15 10:29:42;;;;;;;7.15;2.80;;;;;;;13.71;41.30;100270.16;5056533;27;97329;-81
2021/03/15 10:32:09;;;;;;;4.05;2.20;;;;;;;14.23;40.58;100269.84;5050466;27;98857;-81
2021/03/15 10:34:35;;;;;;;6.25;2.08;;;;;;;13.53;40.99;100273.81;5058751;27;101619;-81
2021/03/15 10:37:02;;;;;;;7.03;2.28;;;;;;;13.02;41.98;100266.84;5058501;27;97138;-81
2021/03/15 10:39:30;;;;;;;4.22;2.17;;;;;;;13.42;41.65;100260.28;5057513;27;98521;-83
2021/03/15 10:41:59;;;;;;;2.30;1.92;;;;;;;13.45;41.40;100262.78;5052730;27;98103;-81
2021/03/15 10:44:25;;;;;;;5.45;2.50;;;;;;;13.40;41.06;100268.31;5067700;27;101496;-82
2021/03/15 10:46:54;;;;;;;4.75;2.28;;;;;;;12.73;42.50;100261.25;5062589;27;97015;-82
2021/03/15 10:49:34;;;;;;;8.57;2.10;;;;;;;12.77;42.76;100259.31;5059906;27;96813;-82
2021/03/15 10:52:00;;;;;;;5.72;2.22;;;;;;;12.55;43.28;100250.75;5056052;27;100420;-83
2021/03/15 10:54:32;;;;;;;4.25;2.28;;;;;;;13.00;42.61;100260.75;5064519;27;102013;-84
2021/03/15 10:57:20;;;;;;;6.18;2.30;;;;;;;12.95;42.59;100268.09;5067840;27;96847;-83
2021/03/15 10:59:53;;;;;;;4.57;2.13;;;;;;;13.39;41.67;100257.81;5063248;27;96699;-82
2021/03/15 11:02:26;;;;;;;2.40;1.63;;;;;;;13.46;41.30;100259.16;5062381;27;99381;-80
2021/03/15 11:05:29;;;;;;;2.92;1.60;;;;;;;12.98;42.17;100257.34;5058259;27;98910;-81
2021/03/15 11:07:55;;;;;;;3.67;1.85;;;;;;;12.66;42.99;100257.25;5056910;27;98600;-81
2021/03/15 11:10:24;;;;;;;5.05;2.00;;;;;;;11.92;44.48;100253.91;5058820;27;97268;-81
2021/03/15 11:12:54;;;;;;;3.47;2.00;;;;;;;11.85;45.41;100254.28;5064141;27;99342;-81
2021/03/15 11:15:23;;;;;;;12.45;2.20;;;;;;;11.93;45.45;100246.84;5071168;27;99086;-82
2021/03/15 11:18:10;;;;;;;18.70;2.13;;;;;;;11.74;45.96;100243.38;5062093;27;96796;-82
2021/03/15 11:20:49;;;;;;;4.45;1.70;;;;;;;11.85;46.27;100251.63;5056055;27;97262;-82
2021/03/15 11:23:27;;;;;;;3.88;1.90;;;;;;;11.80;46.81;100243.94;5049581;27;101436;-82
2021/03/15 11:26:01;;;;;;;12.00;3.28;;;;;;;12.24;45.44;100246.16;5059173;27;99963;-81
2021/03/15 11:28:31;;;;;;;6.47;2.78;;;;;;;12.38;43.63;100238.38;5057010;27;96723;-81
2021/03/15 11:30:59;;;;;;;3.08;2.78;;;;;;;11.94;43.16;100235.31;5058178;27;97718;-81
2021/03/15 11:33:25;;;;;;;3.75;3.00;;;;;;;11.84;43.59;100234.03;5057245;27;101454;-83
2021/03/15 11:35:53;;;;;;;24.45;4.13;;;;;;;11.81;44.03;100229.75;5057412;27;100668;-81
2021/03/15 11:38:23;;;;;;;7.05;3.22;;;;;;;12.18;43.71;100223.50;5065626;27;96860;-82
2021/03/15 11:40:49;;;;;;;8.63;3.13;;;;;;;12.02;43.95;100227.81;5058638;27;96928;-81
2021/03/15 11:43:16;;;;;;;13.98;3.70;;;;;;;12.28;44.04;100224.72;5056664;27;99380;-81
2021/03/15 11:45:43;;;;;;;6.68;3.42;;;;;;;12.71;43.24;100225.19;5055957;27;99437;-81